sensor_id;sensor_type;location;lat;lon;timestamp;temperature;humidity
23815;DHT22;12088;53.078;8.720;2023-01-08T00:00:56;9.80;99.90
23815;DHT22;12088;53.078;8.720;2023-01-08T00:03:22;9.80;99.90
23815;DHT22;12088;53.078;8.720;2023-01-08T00:05:47;9.80;99.90
23815;DHT22;12088;53.078;8.720;2023-01-08T00:08:13;9.90;99.90
23815;DHT22;12088;53.078;8.720;2023-01-08T00:10:38;9.80;99.90
23815;DHT22;12088;53.078;8.720;2023-01-08T00:13:05;9.90;99.90
23815;DHT22;12088;53.078;8.720;2023-01-08T00:15:32;9.90;99.90
23815;DHT22;12088;53.078;8.720;2023-01-08T00:17:58;9.90;99.90
23815;DHT22;12088;53.078;8.720;2023-01-08T00:20:23;9.90;99.90
23815;DHT22;12088;53.078;8.720;2023-01-08T00:22:50;9.90;99.90
23815;DHT22;12088;53.078;8.720;2023-01-08T00:25:17;9.90;99.90
23815;DHT22;12088;53.078;8.720;2023-01-08T00:27:43;9.90;99.90
23815;DHT22;12088;53.078;8.720;2023-01-08T00:30:09;9.90;99.90
23815;DHT22;12088;53.078;8.720;2023-01-08T00:32:35;9.90;99.90
23815;DHT22;12088;53.078;8.720;2023-01-08T00:35:00;9.90;99.90
23815;DHT22;12088;53.078;8.720;2023-01-08T00:37:26;10.00;99.90
23815;DHT22;12088;53.078;8.720;2023-01-08T00:39:51;9.90;99.90
23815;DHT22;12088;53.078;8.720;2023-01-08T00:42:17;9.90;99.90
23815;DHT22;12088;53.078;8.720;2023-01-08T00:44:42;9.90;99.90
23815;DHT22;12088;53.078;8.720;2023-01-08T00:47:08;9.90;99.90
23815;DHT22;12088;53.078;8.720;2023-01-08T00:49:33;9.90;99.90
23815;DHT22;12088;53.078;8.720;2023-01-08T00:51:59;9.90;99.90
23815;DHT22;12088;53.078;8.720;2023-01-08T00:54:24;9.90;99.90
23815;DHT22;12088;53.078;8.720;2023-01-08T00:56:50;9.90;99.90
23815;DHT22;12088;53.078;8.720;2023-01-08T00:59:15;9.90;99.90
23815;DHT22;12088;53.078;8.720;2023-01-08T01:01:41;9.90;99.90
23815;DHT22;12088;53.078;8.720;2023-01-08T01:04:07;9.90;99.90
23815;DHT22;12088;53.078;8.720;2023-01-08T01:06:32;9.90;99.90
23815;DHT22;12088;53.078;8.720;2023-01-08T01:08:58;9.90;99.90
23815;DHT22;12088;53.078;8.720;2023-01-08T01:11:25;9.90;99.90
23815;DHT22;12088;53.078;8.720;2023-01-08T01:13:52;9.90;99.90
23815;DHT22;12088;53.078;8.720;2023-01-08T01:16:18;10.00;99.90
23815;DHT22;12088;53.078;8.720;2023-01-08T01:18:44;9.90;99.90
23815;DHT22;12088;53.078;8.720;2023-01-08T01:21:11;9.80;99.90
23815;DHT22;12088;53.078;8.720;2023-01-08T01:23:37;9.70;99.90
23815;DHT22;12088;53.078;8.720;2023-01-08T01:26:02;9.70;99.90
23815;DHT22;12088;53.078;8.720;2023-01-08T01:28:28;9.80;99.90
23815;DHT22;12088;53.078;8.720;2023-01-08T01:30:55;9.80;99.90
23815;DHT22;12088;53.078;8.720;2023-01-08T01:33:21;9.80;99.90
23815;DHT22;12088;53.078;8.720;2023-01-08T01:35:47;9.80;99.90
23815;DHT22;12088;53.078;8.720;2023-01-08T01:38:12;9.90;99.90
23815;DHT22;12088;53.078;8.720;2023-01-08T01:40:42;9.80;99.90
23815;DHT22;12088;53.078;8.720;2023-01-08T01:43:12;9.90;99.90
23815;DHT22;12088;53.078;8.720;2023-01-08T01:45:38;9.80;99.90
23815;DHT22;12088;53.078;8.720;2023-01-08T01:48:09;9.80;99.90
23815;DHT22;12088;53.078;8.720;2023-01-08T01:50:40;9.80;99.90
23815;DHT22;12088;53.078;8.720;2023-01-08T01:53:16;9.80;99.90
23815;DHT22;12088;53.078;8.720;2023-01-08T01:55:42;9.70;99.90
23815;DHT22;12088;53.078;8.720;2023-01-08T01:58:17;9.70;99.90
23815;DHT22;12088;53.078;8.720;2023-01-08T02:00:43;9.80;99.90
23815;DHT22;12088;53.078;8.720;2023-01-08T02:03:10;9.80;99.90
23815;DHT22;12088;53.078;8.720;2023-01-08T02:05:45;9.80;99.90
23815;DHT22;12088;53.078;8.720;2023-01-08T02:08:27;9.90;99.90
23815;DHT22;12088;53.078;8.720;2023-01-08T02:11:09;9.90;99.90
23815;DHT22;12088;53.078;8.720;2023-01-08T02:13:40;10.00;99.90
23815;DHT22;12088;53.078;8.720;2023-01-08T02:16:15;10.10;99.90
23815;DHT22;12088;53.078;8.720;2023-01-08T02:18:47;10.10;99.90
23815;DHT22;12088;53.078;8.720;2023-01-08T02:21:28;10.10;99.90
23815;DHT22;12088;53.078;8.720;2023-01-08T02:24:19;10.20;99.90
23815;DHT22;12088;53.078;8.720;2023-01-08T02:26:51;10.10;99.90
23815;DHT22;12088;53.078;8.720;2023-01-08T02:29:20;10.10;99.90
23815;DHT22;12088;53.078;8.720;2023-01-08T02:31:48;10.20;99.90
23815;DHT22;12088;53.078;8.720;2023-01-08T02:34:13;10.10;99.90
23815;DHT22;12088;53.078;8.720;2023-01-08T02:36:42;10.20;99.90
23815;DHT22;12088;53.078;8.720;2023-01-08T02:42:50;10.20;99.90
23815;DHT22;12088;53.078;8.720;2023-01-08T02:45:42;10.20;99.90
23815;DHT22;12088;53.078;8.720;2023-01-08T02:48:12;10.20;99.90
23815;DHT22;12088;53.078;8.720;2023-01-08T02:51:03;10.10;99.90
23815;DHT22;12088;53.078;8.720;2023-01-08T02:53:46;10.10;99.90
23815;DHT22;12088;53.078;8.720;2023-01-08T02:56:15;10.20;99.90
23815;DHT22;12088;53.078;8.720;2023-01-08T02:58:45;10.20;99.90
23815;DHT22;12088;53.078;8.720;2023-01-08T03:01:15;10.20;99.90
23815;DHT22;12088;53.078;8.720;2023-01-08T03:03:44;10.20;99.90
23815;DHT22;12088;53.078;8.720;2023-01-08T03:06:13;10.20;99.90
23815;DHT22;12088;53.078;8.720;2023-01-08T03:08:42;10.20;99.90
23815;DHT22;12088;53.078;8.720;2023-01-08T03:11:15;10.20;99.90
23815;DHT22;12088;53.078;8.720;2023-01-08T03:16:46;10.00;99.90
23815;DHT22;12088;53.078;8.720;2023-01-08T03:19:29;10.10;99.90
23815;DHT22;12088;53.078;8.720;2023-01-08T03:21:57;10.10;99.90
23815;DHT22;12088;53.078;8.720;2023-01-08T03:24:28;10.10;99.90
23815;DHT22;12088;53.078;8.720;2023-01-08T03:26:57;10.20;99.90
23815;DHT22;12088;53.078;8.720;2023-01-08T03:29:24;10.10;99.90
23815;DHT22;12088;53.078;8.720;2023-01-08T03:31:53;10.10;99.90
23815;DHT22;12088;53.078;8.720;2023-01-08T03:34:20;10.10;99.90
23815;DHT22;12088;53.078;8.720;2023-01-08T03:36:48;10.00;99.90
23815;DHT22;12088;53.078;8.720;2023-01-08T03:39:25;10.10;99.90
23815;DHT22;12088;53.078;8.720;2023-01-08T03:41:54;10.10;99.90
23815;DHT22;12088;53.078;8.720;2023-01-08T03:44:20;10.10;99.90
23815;DHT22;12088;53.078;8.720;2023-01-08T03:46:49;10.10;99.90
23815;DHT22;12088;53.078;8.720;2023-01-08T03:49:17;10.10;99.90
23815;DHT22;12088;53.078;8.720;2023-01-08T03:51:45;10.10;99.90
23815;DHT22;12088;53.078;8.720;2023-01-08T03:54:19;10.10;99.90
23815;DHT22;12088;53.078;8.720;2023-01-08T03:56:45;10.10;99.90
23815;DHT22;12088;53.078;8.720;2023-01-08T03:59:12;10.00;99.90
23815;DHT22;12088;53.078;8.720;2023-01-08T04:01:38;10.00;99.90
23815;DHT22;12088;53.078;8.720;2023-01-08T04:04:04;10.00;99.90
23815;DHT22;12088;53.078;8.720;2023-01-08T04:06:30;9.90;99.90
23815;DHT22;12088;53.078;8.720;2023-01-08T04:08:55;9.80;99.90
23815;DHT22;12088;53.078;8.720;2023-01-08T04:11:21;9.90;99.90
23815;DHT22;12088;53.078;8.720;2023-01-08T04:13:46;9.90;99.90
23815;DHT22;12088;53.078;8.720;2023-01-08T04:16:12;9.90;99.90
23815;DHT22;12088;53.078;8.720;2023-01-08T04:18:37;9.80;99.90
23815;DHT22;12088;53.078;8.720;2023-01-08T04:21:03;9.60;99.90
23815;DHT22;12088;53.078;8.720;2023-01-08T04:23:29;9.60;99.90
23815;DHT22;12088;53.078;8.720;2023-01-08T04:25:54;9.60;99.90
23815;DHT22;12088;53.078;8.720;2023-01-08T04:28:20;9.60;99.90
23815;DHT22;12088;53.078;8.720;2023-01-08T04:30:45;9.60;99.90
23815;DHT22;12088;53.078;8.720;2023-01-08T04:33:11;9.60;99.90
23815;DHT22;12088;53.078;8.720;2023-01-08T04:35:37;9.50;99.90
23815;DHT22;12088;53.078;8.720;2023-01-08T04:38:02;9.50;99.90
23815;DHT22;12088;53.078;8.720;2023-01-08T04:40:28;9.50;99.90
23815;DHT22;12088;53.078;8.720;2023-01-08T04:42:54;9.60;99.90
23815;DHT22;12088;53.078;8.720;2023-01-08T04:45:19;9.60;99.90
23815;DHT22;12088;53.078;8.720;2023-01-08T04:47:45;9.60;99.90
23815;DHT22;12088;53.078;8.720;2023-01-08T04:50:10;9.60;99.90
23815;DHT22;12088;53.078;8.720;2023-01-08T04:52:36;9.70;99.90
23815;DHT22;12088;53.078;8.720;2023-01-08T04:55:02;9.70;99.90
23815;DHT22;12088;53.078;8.720;2023-01-08T04:57:27;9.60;99.90
23815;DHT22;12088;53.078;8.720;2023-01-08T04:59:53;9.70;99.90
23815;DHT22;12088;53.078;8.720;2023-01-08T05:02:18;9.60;99.90
23815;DHT22;12088;53.078;8.720;2023-01-08T05:04:43;9.50;99.90
23815;DHT22;12088;53.078;8.720;2023-01-08T05:07:09;9.70;99.90
23815;DHT22;12088;53.078;8.720;2023-01-08T05:09:34;9.60;99.90
23815;DHT22;12088;53.078;8.720;2023-01-08T05:12:00;9.50;99.90
23815;DHT22;12088;53.078;8.720;2023-01-08T05:14:25;9.60;99.90
23815;DHT22;12088;53.078;8.720;2023-01-08T05:16:51;9.70;99.90
23815;DHT22;12088;53.078;8.720;2023-01-08T05:19:16;9.60;99.90
23815;DHT22;12088;53.078;8.720;2023-01-08T05:21:42;9.60;99.90
23815;DHT22;12088;53.078;8.720;2023-01-08T05:24:07;9.70;99.90
23815;DHT22;12088;53.078;8.720;2023-01-08T05:26:34;9.70;99.90
23815;DHT22;12088;53.078;8.720;2023-01-08T05:28:59;9.80;99.90
23815;DHT22;12088;53.078;8.720;2023-01-08T05:31:25;9.70;99.90
23815;DHT22;12088;53.078;8.720;2023-01-08T05:33:51;9.60;99.90
23815;DHT22;12088;53.078;8.720;2023-01-08T05:36:17;9.70;99.90
23815;DHT22;12088;53.078;8.720;2023-01-08T05:38:42;9.60;99.90
23815;DHT22;12088;53.078;8.720;2023-01-08T05:41:08;9.60;99.90
23815;DHT22;12088;53.078;8.720;2023-01-08T05:43:35;9.60;99.90
23815;DHT22;12088;53.078;8.720;2023-01-08T05:46:01;9.70;99.90
23815;DHT22;12088;53.078;8.720;2023-01-08T05:48:28;9.70;99.90
23815;DHT22;12088;53.078;8.720;2023-01-08T05:50:54;9.60;99.90
23815;DHT22;12088;53.078;8.720;2023-01-08T05:53:20;9.70;99.90
23815;DHT22;12088;53.078;8.720;2023-01-08T05:55:45;9.70;99.90
23815;DHT22;12088;53.078;8.720;2023-01-08T05:58:11;9.80;99.90
23815;DHT22;12088;53.078;8.720;2023-01-08T06:00:37;9.80;99.90
23815;DHT22;12088;53.078;8.720;2023-01-08T06:03:03;9.90;99.90
23815;DHT22;12088;53.078;8.720;2023-01-08T06:05:32;9.70;99.90
23815;DHT22;12088;53.078;8.720;2023-01-08T06:07:58;9.70;99.90
23815;DHT22;12088;53.078;8.720;2023-01-08T06:10:24;9.70;99.90
23815;DHT22;12088;53.078;8.720;2023-01-08T06:12:50;9.70;99.90
23815;DHT22;12088;53.078;8.720;2023-01-08T06:15:16;9.70;99.90
23815;DHT22;12088;53.078;8.720;2023-01-08T06:17:41;9.60;99.90
23815;DHT22;12088;53.078;8.720;2023-01-08T06:20:07;9.60;99.90
23815;DHT22;12088;53.078;8.720;2023-01-08T06:22:33;9.60;99.90
23815;DHT22;12088;53.078;8.720;2023-01-08T06:24:59;9.60;99.90
23815;DHT22;12088;53.078;8.720;2023-01-08T06:27:25;9.60;99.90
23815;DHT22;12088;53.078;8.720;2023-01-08T06:29:50;9.60;99.90
23815;DHT22;12088;53.078;8.720;2023-01-08T06:32:16;9.60;99.90
23815;DHT22;12088;53.078;8.720;2023-01-08T06:34:41;9.60;99.90
23815;DHT22;12088;53.078;8.720;2023-01-08T06:37:07;9.70;99.90
23815;DHT22;12088;53.078;8.720;2023-01-08T06:39:32;9.70;99.90
23815;DHT22;12088;53.078;8.720;2023-01-08T06:41:58;9.60;99.90
23815;DHT22;12088;53.078;8.720;2023-01-08T06:44:23;9.50;99.90
23815;DHT22;12088;53.078;8.720;2023-01-08T06:46:49;9.60;99.90
23815;DHT22;12088;53.078;8.720;2023-01-08T06:49:15;9.60;99.90
23815;DHT22;12088;53.078;8.720;2023-01-08T06:51:42;9.60;99.90
23815;DHT22;12088;53.078;8.720;2023-01-08T06:54:07;9.60;99.90
23815;DHT22;12088;53.078;8.720;2023-01-08T06:56:33;9.50;99.90
23815;DHT22;12088;53.078;8.720;2023-01-08T06:58:59;9.50;99.90
23815;DHT22;12088;53.078;8.720;2023-01-08T07:01:24;9.50;99.90
23815;DHT22;12088;53.078;8.720;2023-01-08T07:03:49;9.40;99.90
23815;DHT22;12088;53.078;8.720;2023-01-08T07:06:17;9.40;99.90
23815;DHT22;12088;53.078;8.720;2023-01-08T07:08:44;9.50;99.90
23815;DHT22;12088;53.078;8.720;2023-01-08T07:11:10;9.50;99.90
23815;DHT22;12088;53.078;8.720;2023-01-08T07:13:35;9.50;99.90
23815;DHT22;12088;53.078;8.720;2023-01-08T07:16:08;9.40;99.90
23815;DHT22;12088;53.078;8.720;2023-01-08T07:18:34;9.30;99.90
23815;DHT22;12088;53.078;8.720;2023-01-08T07:21:01;9.20;99.90
23815;DHT22;12088;53.078;8.720;2023-01-08T07:23:27;9.20;99.90
23815;DHT22;12088;53.078;8.720;2023-01-08T07:25:53;9.20;99.90
23815;DHT22;12088;53.078;8.720;2023-01-08T07:28:18;9.30;99.90
23815;DHT22;12088;53.078;8.720;2023-01-08T07:30:44;9.30;99.90
23815;DHT22;12088;53.078;8.720;2023-01-08T07:33:09;9.30;99.90
23815;DHT22;12088;53.078;8.720;2023-01-08T07:35:35;9.30;99.90
23815;DHT22;12088;53.078;8.720;2023-01-08T07:38:02;9.30;99.90
23815;DHT22;12088;53.078;8.720;2023-01-08T07:40:28;9.30;99.90
23815;DHT22;12088;53.078;8.720;2023-01-08T07:43:01;9.30;99.90
23815;DHT22;12088;53.078;8.720;2023-01-08T07:45:28;9.40;99.90
23815;DHT22;12088;53.078;8.720;2023-01-08T07:47:56;9.40;99.90
23815;DHT22;12088;53.078;8.720;2023-01-08T07:50:22;9.40;99.90
23815;DHT22;12088;53.078;8.720;2023-01-08T07:52:47;9.40;99.90
23815;DHT22;12088;53.078;8.720;2023-01-08T07:55:13;9.40;99.90
23815;DHT22;12088;53.078;8.720;2023-01-08T07:57:38;9.40;99.90
23815;DHT22;12088;53.078;8.720;2023-01-08T08:00:04;9.40;99.90
23815;DHT22;12088;53.078;8.720;2023-01-08T08:02:30;9.40;99.90
23815;DHT22;12088;53.078;8.720;2023-01-08T08:04:56;9.40;99.90
23815;DHT22;12088;53.078;8.720;2023-01-08T08:07:21;9.40;99.90
23815;DHT22;12088;53.078;8.720;2023-01-08T08:09:46;9.40;99.90
23815;DHT22;12088;53.078;8.720;2023-01-08T08:12:12;9.40;99.90
23815;DHT22;12088;53.078;8.720;2023-01-08T08:14:38;9.40;99.90
23815;DHT22;12088;53.078;8.720;2023-01-08T08:17:03;9.40;99.90
23815;DHT22;12088;53.078;8.720;2023-01-08T08:19:29;9.40;99.90
23815;DHT22;12088;53.078;8.720;2023-01-08T08:21:54;9.40;99.90
23815;DHT22;12088;53.078;8.720;2023-01-08T08:24:20;9.40;99.90
23815;DHT22;12088;53.078;8.720;2023-01-08T08:26:45;9.40;99.90
23815;DHT22;12088;53.078;8.720;2023-01-08T08:29:11;9.40;99.90
23815;DHT22;12088;53.078;8.720;2023-01-08T08:31:36;9.40;99.90
23815;DHT22;12088;53.078;8.720;2023-01-08T08:34:02;9.40;99.90
23815;DHT22;12088;53.078;8.720;2023-01-08T08:36:28;9.50;99.90
23815;DHT22;12088;53.078;8.720;2023-01-08T08:38:54;9.50;99.90
23815;DHT22;12088;53.078;8.720;2023-01-08T08:41:20;9.50;99.90
23815;DHT22;12088;53.078;8.720;2023-01-08T08:43:45;9.50;99.90
23815;DHT22;12088;53.078;8.720;2023-01-08T08:46:10;9.50;99.90
23815;DHT22;12088;53.078;8.720;2023-01-08T08:48:36;9.60;99.90
23815;DHT22;12088;53.078;8.720;2023-01-08T08:51:02;9.70;99.90
23815;DHT22;12088;53.078;8.720;2023-01-08T08:53:28;9.70;99.90
23815;DHT22;12088;53.078;8.720;2023-01-08T08:55:53;9.70;99.90
23815;DHT22;12088;53.078;8.720;2023-01-08T08:58:21;9.70;99.90
23815;DHT22;12088;53.078;8.720;2023-01-08T09:00:47;9.70;99.90
23815;DHT22;12088;53.078;8.720;2023-01-08T09:03:13;9.80;99.90
23815;DHT22;12088;53.078;8.720;2023-01-08T09:05:39;9.80;99.90
23815;DHT22;12088;53.078;8.720;2023-01-08T09:08:05;9.80;99.90
23815;DHT22;12088;53.078;8.720;2023-01-08T09:10:31;9.80;99.90
23815;DHT22;12088;53.078;8.720;2023-01-08T09:12:56;9.80;99.90
23815;DHT22;12088;53.078;8.720;2023-01-08T09:15:22;9.70;99.90
23815;DHT22;12088;53.078;8.720;2023-01-08T09:17:55;9.80;99.90
23815;DHT22;12088;53.078;8.720;2023-01-08T09:20:21;9.80;99.90
23815;DHT22;12088;53.078;8.720;2023-01-08T09:22:47;9.80;99.90
23815;DHT22;12088;53.078;8.720;2023-01-08T09:25:13;9.70;99.90
23815;DHT22;12088;53.078;8.720;2023-01-08T09:27:38;9.60;99.90
23815;DHT22;12088;53.078;8.720;2023-01-08T09:30:04;9.60;99.90
23815;DHT22;12088;53.078;8.720;2023-01-08T09:32:30;9.70;99.90
23815;DHT22;12088;53.078;8.720;2023-01-08T09:34:55;9.60;99.90
23815;DHT22;12088;53.078;8.720;2023-01-08T09:37:21;9.50;99.90
23815;DHT22;12088;53.078;8.720;2023-01-08T09:39:48;9.60;99.90
23815;DHT22;12088;53.078;8.720;2023-01-08T09:42:14;9.60;99.90
23815;DHT22;12088;53.078;8.720;2023-01-08T09:44:42;9.70;99.90
23815;DHT22;12088;53.078;8.720;2023-01-08T09:47:35;9.70;99.90
23815;DHT22;12088;53.078;8.720;2023-01-08T09:50:06;9.70;99.90
23815;DHT22;12088;53.078;8.720;2023-01-08T09:52:36;10.00;99.90
23815;DHT22;12088;53.078;8.720;2023-01-08T09:55:02;10.00;99.90
23815;DHT22;12088;53.078;8.720;2023-01-08T09:57:30;9.90;99.90
23815;DHT22;12088;53.078;8.720;2023-01-08T09:59:57;9.90;99.90
23815;DHT22;12088;53.078;8.720;2023-01-08T10:02:24;9.90;99.90
23815;DHT22;12088;53.078;8.720;2023-01-08T10:04:54;9.90;99.90
23815;DHT22;12088;53.078;8.720;2023-01-08T10:07:25;9.90;99.90
23815;DHT22;12088;53.078;8.720;2023-01-08T10:09:51;9.90;99.90
23815;DHT22;12088;53.078;8.720;2023-01-08T10:12:25;10.00;99.90
23815;DHT22;12088;53.078;8.720;2023-01-08T10:14:53;10.10;99.90
23815;DHT22;12088;53.078;8.720;2023-01-08T10:17:41;10.20;99.90
23815;DHT22;12088;53.078;8.720;2023-01-08T10:20:17;10.10;99.90
23815;DHT22;12088;53.078;8.720;2023-01-08T10:22:43;11.90;99.90
23815;DHT22;12088;53.078;8.720;2023-01-08T10:25:12;13.40;99.90
23815;DHT22;12088;53.078;8.720;2023-01-08T10:32:56;16.20;99.90
23815;DHT22;12088;53.078;8.720;2023-01-08T10:35:32;15.60;99.90
23815;DHT22;12088;53.078;8.720;2023-01-08T10:37:58;15.50;99.90
23815;DHT22;12088;53.078;8.720;2023-01-08T10:40:36;14.90;99.90
23815;DHT22;12088;53.078;8.720;2023-01-08T10:43:10;14.70;99.90
23815;DHT22;12088;53.078;8.720;2023-01-08T10:45:37;14.40;99.90
23815;DHT22;12088;53.078;8.720;2023-01-08T10:48:04;14.40;99.90
23815;DHT22;12088;53.078;8.720;2023-01-08T10:50:32;15.10;99.90
23815;DHT22;12088;53.078;8.720;2023-01-08T10:53:00;15.10;99.90
23815;DHT22;12088;53.078;8.720;2023-01-08T10:55:27;14.50;99.90
23815;DHT22;12088;53.078;8.720;2023-01-08T11:00:31;16.60;99.90
23815;DHT22;12088;53.078;8.720;2023-01-08T11:03:00;15.20;99.90
23815;DHT22;12088;53.078;8.720;2023-01-08T11:07:57;15.00;99.90
23815;DHT22;12088;53.078;8.720;2023-01-08T11:10:25;15.50;99.90
23815;DHT22;12088;53.078;8.720;2023-01-08T11:12:59;15.30;99.90
23815;DHT22;12088;53.078;8.720;2023-01-08T11:15:34;14.40;99.90
23815;DHT22;12088;53.078;8.720;2023-01-08T11:20:42;14.50;99.90
23815;DHT22;12088;53.078;8.720;2023-01-08T11:23:15;14.90;99.90
23815;DHT22;12088;53.078;8.720;2023-01-08T11:25:51;15.00;99.90
23815;DHT22;12088;53.078;8.720;2023-01-08T11:28:26;14.80;99.90
23815;DHT22;12088;53.078;8.720;2023-01-08T11:30:58;14.90;99.90
23815;DHT22;12088;53.078;8.720;2023-01-08T11:33:29;14.00;99.90
23815;DHT22;12088;53.078;8.720;2023-01-08T11:36:22;13.80;99.90
23815;DHT22;12088;53.078;8.720;2023-01-08T11:38:50;14.30;99.90
23815;DHT22;12088;53.078;8.720;2023-01-08T11:47:18;13.70;99.90
23815;DHT22;12088;53.078;8.720;2023-01-08T11:50:03;13.50;99.90
23815;DHT22;12088;53.078;8.720;2023-01-08T11:52:57;13.00;99.90
23815;DHT22;12088;53.078;8.720;2023-01-08T12:07:18;13.30;99.90
23815;DHT22;12088;53.078;8.720;2023-01-08T12:10:20;12.90;99.90
23815;DHT22;12088;53.078;8.720;2023-01-08T12:26:17;13.90;99.90
23815;DHT22;12088;53.078;8.720;2023-01-08T12:29:08;14.90;99.90
23815;DHT22;12088;53.078;8.720;2023-01-08T12:32:04;15.20;99.90
23815;DHT22;12088;53.078;8.720;2023-01-08T12:37:51;13.80;99.90
23815;DHT22;12088;53.078;8.720;2023-01-08T12:40:23;14.10;99.90
23815;DHT22;12088;53.078;8.720;2023-01-08T12:42:51;13.20;99.90
23815;DHT22;12088;53.078;8.720;2023-01-08T12:45:26;13.20;99.90
23815;DHT22;12088;53.078;8.720;2023-01-08T12:48:06;13.30;99.90
23815;DHT22;12088;53.078;8.720;2023-01-08T12:50:58;13.50;99.90
23815;DHT22;12088;53.078;8.720;2023-01-08T12:53:47;13.20;99.90
23815;DHT22;12088;53.078;8.720;2023-01-08T12:56:40;12.90;99.90
23815;DHT22;12088;53.078;8.720;2023-01-08T13:02:02;12.50;99.90
23815;DHT22;12088;53.078;8.720;2023-01-08T13:04:43;12.60;99.90
23815;DHT22;12088;53.078;8.720;2023-01-08T13:07:29;12.40;99.90
23815;DHT22;12088;53.078;8.720;2023-01-08T13:10:06;12.40;99.90
23815;DHT22;12088;53.078;8.720;2023-01-08T13:12:37;12.30;99.90
23815;DHT22;12088;53.078;8.720;2023-01-08T13:15:06;12.30;99.90
23815;DHT22;12088;53.078;8.720;2023-01-08T13:17:32;12.10;99.90
23815;DHT22;12088;53.078;8.720;2023-01-08T13:20:01;11.80;99.90
23815;DHT22;12088;53.078;8.720;2023-01-08T13:22:29;11.70;99.90
23815;DHT22;12088;53.078;8.720;2023-01-08T13:25:09;11.70;99.90
23815;DHT22;12088;53.078;8.720;2023-01-08T13:27:35;11.80;99.90
23815;DHT22;12088;53.078;8.720;2023-01-08T13:30:00;12.00;99.90
23815;DHT22;12088;53.078;8.720;2023-01-08T13:32:47;12.10;99.90
23815;DHT22;12088;53.078;8.720;2023-01-08T13:37:42;12.00;99.90
23815;DHT22;12088;53.078;8.720;2023-01-08T13:43:23;12.10;99.90
23815;DHT22;12088;53.078;8.720;2023-01-08T13:48:24;12.00;99.90
23815;DHT22;12088;53.078;8.720;2023-01-08T13:50:50;12.00;99.90
23815;DHT22;12088;53.078;8.720;2023-01-08T13:53:17;11.90;99.90
23815;DHT22;12088;53.078;8.720;2023-01-08T13:56:05;11.90;99.90
23815;DHT22;12088;53.078;8.720;2023-01-08T13:58:35;11.70;99.90
23815;DHT22;12088;53.078;8.720;2023-01-08T14:01:03;11.60;99.90
23815;DHT22;12088;53.078;8.720;2023-01-08T14:03:33;11.60;99.90
23815;DHT22;12088;53.078;8.720;2023-01-08T14:11:23;11.20;99.90
23815;DHT22;12088;53.078;8.720;2023-01-08T14:13:49;11.00;99.90
23815;DHT22;12088;53.078;8.720;2023-01-08T14:16:15;11.10;99.90
23815;DHT22;12088;53.078;8.720;2023-01-08T14:18:45;11.00;99.90
23815;DHT22;12088;53.078;8.720;2023-01-08T14:21:11;10.90;99.90
23815;DHT22;12088;53.078;8.720;2023-01-08T14:23:40;10.80;99.90
23815;DHT22;12088;53.078;8.720;2023-01-08T14:26:07;10.80;99.90
23815;DHT22;12088;53.078;8.720;2023-01-08T14:28:34;10.80;99.90
23815;DHT22;12088;53.078;8.720;2023-01-08T14:31:00;10.70;99.90
23815;DHT22;12088;53.078;8.720;2023-01-08T14:33:34;10.70;99.90
23815;DHT22;12088;53.078;8.720;2023-01-08T14:36:01;10.70;99.90
23815;DHT22;12088;53.078;8.720;2023-01-08T14:38:28;10.60;99.90
23815;DHT22;12088;53.078;8.720;2023-01-08T14:41:01;10.60;99.90
23815;DHT22;12088;53.078;8.720;2023-01-08T14:43:32;10.70;99.90
23815;DHT22;12088;53.078;8.720;2023-01-08T14:45:58;10.60;99.90
23815;DHT22;12088;53.078;8.720;2023-01-08T14:48:41;10.50;99.90
23815;DHT22;12088;53.078;8.720;2023-01-08T14:51:14;10.50;99.90
23815;DHT22;12088;53.078;8.720;2023-01-08T14:53:42;10.40;99.90
23815;DHT22;12088;53.078;8.720;2023-01-08T14:56:12;10.30;99.90
23815;DHT22;12088;53.078;8.720;2023-01-08T14:58:41;10.20;99.90
23815;DHT22;12088;53.078;8.720;2023-01-08T15:01:17;10.20;99.90
23815;DHT22;12088;53.078;8.720;2023-01-08T15:03:45;10.30;99.90
23815;DHT22;12088;53.078;8.720;2023-01-08T15:06:11;10.10;99.90
23815;DHT22;12088;53.078;8.720;2023-01-08T15:08:47;10.10;99.90
23815;DHT22;12088;53.078;8.720;2023-01-08T15:11:25;10.00;99.90
23815;DHT22;12088;53.078;8.720;2023-01-08T15:13:52;10.00;99.90
23815;DHT22;12088;53.078;8.720;2023-01-08T15:16:38;10.00;99.90
23815;DHT22;12088;53.078;8.720;2023-01-08T15:19:09;9.90;99.90
23815;DHT22;12088;53.078;8.720;2023-01-08T15:21:35;9.90;99.90
23815;DHT22;12088;53.078;8.720;2023-01-08T15:24:03;9.80;99.90
23815;DHT22;12088;53.078;8.720;2023-01-08T15:26:29;9.80;99.90
23815;DHT22;12088;53.078;8.720;2023-01-08T15:29:03;9.70;99.90
23815;DHT22;12088;53.078;8.720;2023-01-08T15:31:31;9.60;99.90
23815;DHT22;12088;53.078;8.720;2023-01-08T15:33:58;9.60;99.90
23815;DHT22;12088;53.078;8.720;2023-01-08T15:36:24;9.50;99.90
23815;DHT22;12088;53.078;8.720;2023-01-08T15:38:50;9.50;99.90
23815;DHT22;12088;53.078;8.720;2023-01-08T15:41:18;9.40;99.90
23815;DHT22;12088;53.078;8.720;2023-01-08T15:44:05;9.30;99.90
23815;DHT22;12088;53.078;8.720;2023-01-08T15:46:30;9.20;99.90
23815;DHT22;12088;53.078;8.720;2023-01-08T15:48:56;9.10;99.90
23815;DHT22;12088;53.078;8.720;2023-01-08T15:51:22;9.00;99.90
23815;DHT22;12088;53.078;8.720;2023-01-08T15:53:48;9.10;99.90
23815;DHT22;12088;53.078;8.720;2023-01-08T15:56:13;9.10;99.90
23815;DHT22;12088;53.078;8.720;2023-01-08T15:58:39;9.00;99.90
23815;DHT22;12088;53.078;8.720;2023-01-08T16:01:04;9.10;99.90
23815;DHT22;12088;53.078;8.720;2023-01-08T16:03:30;9.00;99.90
23815;DHT22;12088;53.078;8.720;2023-01-08T16:05:55;9.00;99.90
23815;DHT22;12088;53.078;8.720;2023-01-08T16:08:21;8.90;99.90
23815;DHT22;12088;53.078;8.720;2023-01-08T16:10:53;8.80;99.90
23815;DHT22;12088;53.078;8.720;2023-01-08T16:13:18;8.80;99.90
23815;DHT22;12088;53.078;8.720;2023-01-08T16:15:43;8.70;99.90
23815;DHT22;12088;53.078;8.720;2023-01-08T16:18:09;8.70;99.90
23815;DHT22;12088;53.078;8.720;2023-01-08T16:20:35;8.70;99.90
23815;DHT22;12088;53.078;8.720;2023-01-08T16:23:00;8.70;99.90
23815;DHT22;12088;53.078;8.720;2023-01-08T16:25:26;8.70;99.90
23815;DHT22;12088;53.078;8.720;2023-01-08T16:27:51;8.60;99.90
23815;DHT22;12088;53.078;8.720;2023-01-08T16:30:17;8.60;99.90
23815;DHT22;12088;53.078;8.720;2023-01-08T16:32:43;8.70;99.90
23815;DHT22;12088;53.078;8.720;2023-01-08T16:35:10;8.50;99.90
23815;DHT22;12088;53.078;8.720;2023-01-08T16:37:36;8.50;99.90
23815;DHT22;12088;53.078;8.720;2023-01-08T16:40:02;8.50;99.90
23815;DHT22;12088;53.078;8.720;2023-01-08T16:42:28;8.40;99.90
23815;DHT22;12088;53.078;8.720;2023-01-08T16:44:53;8.30;99.90
23815;DHT22;12088;53.078;8.720;2023-01-08T16:47:19;8.30;99.90
23815;DHT22;12088;53.078;8.720;2023-01-08T16:49:44;8.20;99.90
23815;DHT22;12088;53.078;8.720;2023-01-08T16:52:10;8.10;99.90
23815;DHT22;12088;53.078;8.720;2023-01-08T16:54:35;8.00;99.90
23815;DHT22;12088;53.078;8.720;2023-01-08T16:57:01;8.00;99.90
23815;DHT22;12088;53.078;8.720;2023-01-08T16:59:27;7.90;99.90